SDM6076 UWLL-UUEE
Flight info
| Callsign | SDM6076 |
|---|---|
| Flight time | 1h 15m |
| Altitude | 36000 |
| Route | N0460F360 ARPUD T750 OKSUD T787 OTKOL T784 LARNO T291 URIDU L158 DIMGI |
| Aircraft | A319/M-VGDW/C |
Departure
| Time | 2026-05-01 08:14 |
|---|---|
| Airport | Ulyanovsk Baratayevka Airport (UWLL) |
Arrival
| Time | 2026-05-01 09:30 |
|---|---|
| Airport | Sheremetyevo International Airport (UUEE) |
| Time | Latitude | Longitude | Altitude | Speed | Heading |
|---|---|---|---|---|---|
| 2026-05-01 07:46 | 54.28479 | 48.23511 | 378 ft | 0 kts | 212° |
| 2026-05-01 08:03 | 54.28479 | 48.23512 | 377 ft | 0 kts | 212° |
| 2026-05-01 08:06 | 54.28468 | 48.23500 | 378 ft | 3 kts | 212° |
| 2026-05-01 08:07 | 54.28419 | 48.23545 | 381 ft | 6 kts | 123° |
| 2026-05-01 08:07 | 54.28341 | 48.23753 | 389 ft | 12 kts | 122° |
| 2026-05-01 08:08 | 54.28300 | 48.23864 | 392 ft | 10 kts | 122° |
| 2026-05-01 08:08 | 54.28208 | 48.24115 | 388 ft | 11 kts | 122° |
| 2026-05-01 08:09 | 54.28072 | 48.24127 | 388 ft | 13 kts | 212° |
| 2026-05-01 08:09 | 54.27981 | 48.24029 | 392 ft | 18 kts | 212° |
| 2026-05-01 08:09 | 54.27871 | 48.23912 | 391 ft | 19 kts | 211° |
| 2026-05-01 08:10 | 54.27667 | 48.23692 | 398 ft | 16 kts | 212° |
| 2026-05-01 08:10 | 54.27484 | 48.23494 | 408 ft | 17 kts | 212° |
| 2026-05-01 08:11 | 54.27260 | 48.23254 | 414 ft | 20 kts | 212° |
| 2026-05-01 08:11 | 54.27028 | 48.23005 | 419 ft | 22 kts | 212° |
| 2026-05-01 08:12 | 54.26783 | 48.22742 | 433 ft | 20 kts | 212° |
| 2026-05-01 08:12 | 54.26664 | 48.22614 | 436 ft | 20 kts | 212° |
| 2026-05-01 08:12 | 54.26429 | 48.22361 | 438 ft | 20 kts | 212° |
| 2026-05-01 08:13 | 54.26369 | 48.22235 | 442 ft | 10 kts | 262° |
| 2026-05-01 08:13 | 54.26373 | 48.22119 | 444 ft | 10 kts | 275° |
| 2026-05-01 08:13 | 54.26390 | 48.21900 | 437 ft | 8 kts | 325° |
| 2026-05-01 08:14 | 54.26458 | 48.21955 | 439 ft | 18 kts | 31° |
| 2026-05-01 08:14 | 54.26797 | 48.22318 | 430 ft | 96 kts | 32° |
| 2026-05-01 08:14 | 54.27540 | 48.23120 | 468 ft | 150 kts | 33° |
| 2026-05-01 08:14 | 54.28396 | 48.24053 | 1182 ft | 144 kts | 33° |
| 2026-05-01 08:15 | 54.29228 | 48.24965 | 1931 ft | 142 kts | 33° |
| 2026-05-01 08:15 | 54.31121 | 48.26993 | 2880 ft | 177 kts | 33° |
| 2026-05-01 08:15 | 54.32219 | 48.28070 | 3479 ft | 186 kts | 26° |
| 2026-05-01 08:16 | 54.33519 | 48.28398 | 4124 ft | 198 kts | 351° |
| 2026-05-01 08:16 | 54.34708 | 48.27120 | 4683 ft | 216 kts | 309° |
| 2026-05-01 08:16 | 54.35420 | 48.24752 | 5134 ft | 235 kts | 295° |
| 2026-05-01 08:16 | 54.36150 | 48.22079 | 5574 ft | 260 kts | 297° |
| 2026-05-01 08:17 | 54.36956 | 48.19244 | 6302 ft | 273 kts | 297° |
| 2026-05-01 08:17 | 54.37810 | 48.16306 | 7274 ft | 277 kts | 297° |
| 2026-05-01 08:17 | 54.38685 | 48.13344 | 8272 ft | 280 kts | 298° |
| 2026-05-01 08:17 | 54.39580 | 48.10342 | 9240 ft | 284 kts | 298° |
| 2026-05-01 08:18 | 54.40488 | 48.07320 | 10261 ft | 287 kts | 299° |
| 2026-05-01 08:18 | 54.42462 | 48.00789 | 11240 ft | 324 kts | 298° |
| 2026-05-01 08:19 | 54.44557 | 47.93785 | 12871 ft | 336 kts | 298° |
| 2026-05-01 08:19 | 54.45613 | 47.90238 | 13692 ft | 340 kts | 298° |
| 2026-05-01 08:19 | 54.46694 | 47.86592 | 14462 ft | 344 kts | 298° |
| 2026-05-01 08:19 | 54.47763 | 47.82884 | 15208 ft | 348 kts | 297° |
| 2026-05-01 08:20 | 54.48820 | 47.79113 | 15926 ft | 353 kts | 297° |
| 2026-05-01 08:20 | 54.49880 | 47.75287 | 16672 ft | 356 kts | 296° |
| 2026-05-01 08:20 | 54.50948 | 47.71415 | 17412 ft | 360 kts | 297° |
| 2026-05-01 08:20 | 54.52027 | 47.67492 | 18135 ft | 364 kts | 296° |
| 2026-05-01 08:21 | 54.53102 | 47.63584 | 18812 ft | 367 kts | 296° |
| 2026-05-01 08:21 | 54.54201 | 47.59601 | 19456 ft | 371 kts | 297° |
| 2026-05-01 08:21 | 54.55319 | 47.55560 | 20028 ft | 376 kts | 296° |
| 2026-05-01 08:21 | 54.56450 | 47.51476 | 20636 ft | 381 kts | 296° |
| 2026-05-01 08:22 | 54.57594 | 47.47339 | 21273 ft | 384 kts | 295° |
| 2026-05-01 08:22 | 54.58748 | 47.43146 | 21858 ft | 390 kts | 295° |
| 2026-05-01 08:22 | 54.59912 | 47.38910 | 22481 ft | 393 kts | 295° |
| 2026-05-01 08:22 | 54.61089 | 47.34617 | 23083 ft | 398 kts | 294° |
| 2026-05-01 08:23 | 54.62256 | 47.30337 | 23670 ft | 402 kts | 294° |
| 2026-05-01 08:23 | 54.63452 | 47.25950 | 24164 ft | 406 kts | 294° |
| 2026-05-01 08:23 | 54.64656 | 47.21533 | 24696 ft | 408 kts | 294° |
| 2026-05-01 08:23 | 54.65869 | 47.17094 | 25218 ft | 409 kts | 294° |
| 2026-05-01 08:24 | 54.67083 | 47.12634 | 25735 ft | 411 kts | 293° |
| 2026-05-01 08:24 | 54.68298 | 47.08152 | 26234 ft | 413 kts | 293° |
| 2026-05-01 08:24 | 54.69517 | 47.03636 | 26722 ft | 415 kts | 293° |
| 2026-05-01 08:24 | 54.70737 | 46.99097 | 27218 ft | 417 kts | 293° |
| 2026-05-01 08:25 | 54.71961 | 46.94538 | 27686 ft | 419 kts | 293° |
| 2026-05-01 08:25 | 54.73179 | 46.90010 | 28154 ft | 421 kts | 293° |
| 2026-05-01 08:25 | 54.74417 | 46.85408 | 28630 ft | 423 kts | 293° |
| 2026-05-01 08:25 | 54.75663 | 46.80772 | 29093 ft | 426 kts | 293° |
| 2026-05-01 08:26 | 54.76912 | 46.76107 | 29567 ft | 428 kts | 293° |
| 2026-05-01 08:26 | 54.78159 | 46.71420 | 29995 ft | 430 kts | 293° |
| 2026-05-01 08:26 | 54.79409 | 46.66697 | 30361 ft | 432 kts | 293° |
| 2026-05-01 08:26 | 54.80664 | 46.61948 | 30655 ft | 435 kts | 294° |
| 2026-05-01 08:27 | 54.82123 | 46.57331 | 30957 ft | 439 kts | 302° |
| 2026-05-01 08:27 | 54.83946 | 46.53141 | 31232 ft | 442 kts | 307° |
| 2026-05-01 08:27 | 54.85891 | 46.48892 | 31518 ft | 445 kts | 307° |
| 2026-05-01 08:27 | 54.87783 | 46.44742 | 31826 ft | 446 kts | 307° |
| 2026-05-01 08:28 | 54.89710 | 46.40500 | 32245 ft | 446 kts | 307° |
| 2026-05-01 08:28 | 54.91628 | 46.36265 | 32640 ft | 445 kts | 307° |
| 2026-05-01 08:28 | 54.93540 | 46.32029 | 33030 ft | 445 kts | 307° |
| 2026-05-01 08:28 | 54.95450 | 46.27794 | 33439 ft | 445 kts | 307° |
| 2026-05-01 08:29 | 54.97358 | 46.23559 | 33877 ft | 445 kts | 307° |
| 2026-05-01 08:29 | 54.99262 | 46.19323 | 34275 ft | 444 kts | 307° |
| 2026-05-01 08:29 | 55.01162 | 46.15084 | 34599 ft | 444 kts | 307° |
| 2026-05-01 08:29 | 55.03062 | 46.10838 | 34861 ft | 445 kts | 307° |
| 2026-05-01 08:30 | 55.04937 | 46.06642 | 35127 ft | 445 kts | 307° |
| 2026-05-01 08:30 | 55.06839 | 46.02383 | 35391 ft | 445 kts | 307° |
| 2026-05-01 08:30 | 55.08740 | 45.98122 | 35652 ft | 445 kts | 307° |
| 2026-05-01 08:30 | 55.10640 | 45.93855 | 35907 ft | 445 kts | 307° |
| 2026-05-01 08:31 | 55.12541 | 45.89577 | 36076 ft | 446 kts | 307° |
| 2026-05-01 08:31 | 55.16294 | 45.81099 | 36114 ft | 438 kts | 307° |
| 2026-05-01 08:32 | 55.20007 | 45.72687 | 36119 ft | 436 kts | 306° |
| 2026-05-01 08:32 | 55.23696 | 45.64314 | 36117 ft | 438 kts | 307° |
| 2026-05-01 08:33 | 55.27398 | 45.55877 | 36118 ft | 436 kts | 307° |
| 2026-05-01 08:33 | 55.31081 | 45.47430 | 36127 ft | 436 kts | 306° |
| 2026-05-01 08:34 | 55.34763 | 45.38984 | 36130 ft | 435 kts | 307° |
| 2026-05-01 08:34 | 55.38411 | 45.30578 | 36128 ft | 435 kts | 307° |
| 2026-05-01 08:35 | 55.42078 | 45.22092 | 36123 ft | 436 kts | 307° |
| 2026-05-01 08:35 | 55.45738 | 45.13595 | 36132 ft | 435 kts | 306° |
| 2026-05-01 08:36 | 55.49395 | 45.05083 | 36117 ft | 435 kts | 307° |
| 2026-05-01 08:36 | 55.53016 | 44.96619 | 36134 ft | 435 kts | 307° |
| 2026-05-01 08:37 | 55.56078 | 44.87469 | 36131 ft | 434 kts | 290° |
| 2026-05-01 08:37 | 55.57220 | 44.77042 | 36126 ft | 434 kts | 272° |
| 2026-05-01 08:38 | 55.57497 | 44.66365 | 36127 ft | 435 kts | 273° |
| 2026-05-01 08:38 | 55.57774 | 44.55689 | 36124 ft | 435 kts | 273° |
| 2026-05-01 08:39 | 55.58036 | 44.45072 | 36129 ft | 435 kts | 273° |
| 2026-05-01 08:39 | 55.58286 | 44.34371 | 36127 ft | 436 kts | 272° |
| 2026-05-01 08:40 | 55.58646 | 44.18282 | 36133 ft | 437 kts | 273° |
| 2026-05-01 08:40 | 55.58873 | 44.07603 | 36137 ft | 437 kts | 273° |
| 2026-05-01 08:41 | 55.59094 | 43.96859 | 36140 ft | 438 kts | 273° |
| 2026-05-01 08:41 | 55.59295 | 43.86109 | 36153 ft | 437 kts | 272° |
| 2026-05-01 08:42 | 55.59629 | 43.80775 | 36147 ft | 436 kts | 283° |
| 2026-05-01 08:42 | 55.60479 | 43.75639 | 36140 ft | 435 kts | 292° |
| 2026-05-01 08:42 | 55.63334 | 43.66256 | 36137 ft | 434 kts | 301° |
| 2026-05-01 08:43 | 55.66334 | 43.57061 | 36148 ft | 434 kts | 300° |
| 2026-05-01 08:43 | 55.69332 | 43.47758 | 36140 ft | 435 kts | 300° |
| 2026-05-01 08:44 | 55.72333 | 43.38442 | 36152 ft | 435 kts | 300° |
| 2026-05-01 08:44 | 55.75339 | 43.29114 | 36159 ft | 435 kts | 301° |
| 2026-05-01 08:45 | 55.78280 | 43.19793 | 36157 ft | 436 kts | 296° |
| 2026-05-01 08:45 | 55.79914 | 43.09429 | 36157 ft | 439 kts | 277° |
| 2026-05-01 08:46 | 55.80522 | 42.98635 | 36155 ft | 439 kts | 277° |
| 2026-05-01 08:46 | 55.81147 | 42.87839 | 36154 ft | 439 kts | 277° |
| 2026-05-01 08:47 | 55.81749 | 42.77102 | 36160 ft | 439 kts | 277° |
| 2026-05-01 08:47 | 55.82336 | 42.66284 | 36165 ft | 440 kts | 276° |
| 2026-05-01 08:48 | 55.82922 | 42.55455 | 36166 ft | 440 kts | 276° |
| 2026-05-01 08:48 | 55.83493 | 42.44624 | 36170 ft | 440 kts | 277° |
| 2026-05-01 08:49 | 55.84058 | 42.33785 | 36181 ft | 440 kts | 277° |
| 2026-05-01 08:49 | 55.84613 | 42.23016 | 36184 ft | 440 kts | 276° |
| 2026-05-01 08:50 | 55.85155 | 42.12166 | 36185 ft | 440 kts | 276° |
| 2026-05-01 08:50 | 55.85686 | 42.01310 | 36186 ft | 440 kts | 276° |
| 2026-05-01 08:51 | 55.86211 | 41.90457 | 36182 ft | 440 kts | 276° |
| 2026-05-01 08:51 | 55.86717 | 41.79588 | 36182 ft | 441 kts | 274° |
| 2026-05-01 08:52 | 55.86502 | 41.68708 | 36186 ft | 443 kts | 268° |
| 2026-05-01 08:52 | 55.86173 | 41.57748 | 36185 ft | 443 kts | 268° |
| 2026-05-01 08:53 | 55.85834 | 41.46784 | 36187 ft | 444 kts | 268° |
| 2026-05-01 08:53 | 55.85493 | 41.35815 | 36189 ft | 444 kts | 268° |
| 2026-05-01 08:54 | 55.85136 | 41.24916 | 36200 ft | 444 kts | 268° |
| 2026-05-01 08:54 | 55.84767 | 41.13928 | 36190 ft | 448 kts | 269° |
| 2026-05-01 08:55 | 55.84580 | 41.08344 | 36054 ft | 458 kts | 269° |
| 2026-05-01 08:55 | 55.84387 | 41.02663 | 35815 ft | 459 kts | 269° |
| 2026-05-01 08:55 | 55.84192 | 40.97046 | 35581 ft | 452 kts | 269° |
| 2026-05-01 08:55 | 55.83994 | 40.91489 | 35347 ft | 449 kts | 268° |
| 2026-05-01 08:56 | 55.83794 | 40.85962 | 35115 ft | 446 kts | 269° |
| 2026-05-01 08:56 | 55.83597 | 40.80540 | 34824 ft | 444 kts | 269° |
| 2026-05-01 08:56 | 55.83395 | 40.75074 | 34502 ft | 442 kts | 269° |
| 2026-05-01 08:56 | 55.83188 | 40.69635 | 33919 ft | 441 kts | 269° |
| 2026-05-01 08:57 | 55.82980 | 40.64201 | 33435 ft | 437 kts | 269° |
| 2026-05-01 08:57 | 55.82771 | 40.58833 | 32952 ft | 433 kts | 269° |
| 2026-05-01 08:57 | 55.82563 | 40.53517 | 32465 ft | 430 kts | 269° |
| 2026-05-01 08:57 | 55.82352 | 40.48240 | 31990 ft | 426 kts | 269° |
| 2026-05-01 08:58 | 55.82141 | 40.43079 | 31533 ft | 422 kts | 269° |
| 2026-05-01 08:58 | 55.81925 | 40.37877 | 31049 ft | 426 kts | 269° |
| 2026-05-01 08:58 | 55.81706 | 40.32542 | 30597 ft | 437 kts | 270° |
| 2026-05-01 08:58 | 55.81481 | 40.27146 | 30100 ft | 438 kts | 270° |
| 2026-05-01 08:59 | 55.81252 | 40.21764 | 29629 ft | 435 kts | 269° |
| 2026-05-01 08:59 | 55.81021 | 40.16422 | 29179 ft | 432 kts | 269° |
| 2026-05-01 08:59 | 55.80788 | 40.11114 | 28742 ft | 429 kts | 269° |
| 2026-05-01 08:59 | 55.80557 | 40.05857 | 28309 ft | 425 kts | 269° |
| 2026-05-01 09:00 | 55.80330 | 40.00699 | 27876 ft | 422 kts | 269° |
| 2026-05-01 09:00 | 55.80100 | 39.95515 | 27441 ft | 419 kts | 269° |
| 2026-05-01 09:00 | 55.79869 | 39.90379 | 27007 ft | 416 kts | 269° |
| 2026-05-01 09:00 | 55.79636 | 39.85281 | 26561 ft | 412 kts | 269° |
| 2026-05-01 09:01 | 55.79400 | 39.80227 | 26121 ft | 409 kts | 268° |
| 2026-05-01 09:01 | 55.79120 | 39.75214 | 25916 ft | 407 kts | 267° |
| 2026-05-01 09:01 | 55.78798 | 39.70225 | 25674 ft | 406 kts | 266° |
| 2026-05-01 09:01 | 55.78452 | 39.65270 | 25437 ft | 404 kts | 266° |
| 2026-05-01 09:02 | 55.78098 | 39.60333 | 25198 ft | 402 kts | 266° |
| 2026-05-01 09:02 | 55.77751 | 39.55478 | 24940 ft | 402 kts | 267° |
| 2026-05-01 09:02 | 55.77404 | 39.50542 | 24723 ft | 404 kts | 267° |
| 2026-05-01 09:02 | 55.77062 | 39.45598 | 24483 ft | 403 kts | 267° |
| 2026-05-01 09:03 | 55.76725 | 39.40675 | 24240 ft | 401 kts | 267° |
| 2026-05-01 09:03 | 55.76390 | 39.35774 | 24096 ft | 399 kts | 267° |
| 2026-05-01 09:03 | 55.76054 | 39.30877 | 24011 ft | 399 kts | 267° |
| 2026-05-01 09:03 | 55.75714 | 39.25995 | 23912 ft | 399 kts | 267° |
| 2026-05-01 09:04 | 55.75370 | 39.21108 | 23808 ft | 398 kts | 267° |
| 2026-05-01 09:04 | 55.75028 | 39.16306 | 23696 ft | 397 kts | 266° |
| 2026-05-01 09:04 | 55.74681 | 39.11443 | 23581 ft | 397 kts | 266° |
| 2026-05-01 09:04 | 55.74332 | 39.06597 | 23487 ft | 396 kts | 266° |
| 2026-05-01 09:05 | 55.73980 | 39.01753 | 23385 ft | 395 kts | 266° |
| 2026-05-01 09:05 | 55.73626 | 38.96922 | 23282 ft | 395 kts | 266° |
| 2026-05-01 09:05 | 55.73449 | 38.92092 | 23173 ft | 389 kts | 276° |
| 2026-05-01 09:05 | 55.73640 | 38.87356 | 22713 ft | 383 kts | 279° |
| 2026-05-01 09:06 | 55.73877 | 38.82665 | 22229 ft | 380 kts | 279° |
| 2026-05-01 09:06 | 55.74111 | 38.78014 | 21722 ft | 377 kts | 281° |
| 2026-05-01 09:06 | 55.74337 | 38.73433 | 21432 ft | 379 kts | 281° |
| 2026-05-01 09:06 | 55.74566 | 38.68767 | 21156 ft | 380 kts | 281° |
| 2026-05-01 09:07 | 55.74793 | 38.64112 | 20770 ft | 377 kts | 280° |
| 2026-05-01 09:07 | 55.75200 | 38.59575 | 20387 ft | 368 kts | 290° |
| 2026-05-01 09:07 | 55.76061 | 38.55370 | 20184 ft | 358 kts | 302° |
| 2026-05-01 09:07 | 55.77289 | 38.51641 | 20202 ft | 339 kts | 311° |
| 2026-05-01 09:08 | 55.78626 | 38.48272 | 20205 ft | 330 kts | 311° |
| 2026-05-01 09:08 | 55.79923 | 38.44988 | 20206 ft | 328 kts | 311° |
| 2026-05-01 09:08 | 55.81233 | 38.41665 | 20210 ft | 328 kts | 311° |
| 2026-05-01 09:08 | 55.82541 | 38.38347 | 20209 ft | 328 kts | 311° |
| 2026-05-01 09:09 | 55.83879 | 38.35061 | 19871 ft | 329 kts | 313° |
| 2026-05-01 09:09 | 55.85268 | 38.31838 | 19456 ft | 327 kts | 314° |
| 2026-05-01 09:09 | 55.86667 | 38.28672 | 19067 ft | 324 kts | 314° |
| 2026-05-01 09:09 | 55.88061 | 38.25525 | 18678 ft | 322 kts | 315° |
| 2026-05-01 09:10 | 55.89442 | 38.22394 | 18269 ft | 321 kts | 315° |
| 2026-05-01 09:10 | 55.90809 | 38.19271 | 17871 ft | 318 kts | 314° |
| 2026-05-01 09:10 | 55.92140 | 38.16212 | 17502 ft | 315 kts | 314° |
| 2026-05-01 09:10 | 55.93473 | 38.13127 | 17133 ft | 313 kts | 314° |
| 2026-05-01 09:11 | 55.94794 | 38.10056 | 16759 ft | 311 kts | 313° |
| 2026-05-01 09:11 | 55.96101 | 38.07002 | 16397 ft | 309 kts | 313° |
| 2026-05-01 09:11 | 55.97404 | 38.03960 | 16032 ft | 307 kts | 313° |
| 2026-05-01 09:11 | 55.98703 | 38.00937 | 15660 ft | 306 kts | 313° |
| 2026-05-01 09:12 | 56.00067 | 37.98054 | 15298 ft | 301 kts | 321° |
| 2026-05-01 09:12 | 56.01708 | 37.95835 | 15060 ft | 292 kts | 334° |
| 2026-05-01 09:12 | 56.03484 | 37.94251 | 14975 ft | 287 kts | 338° |
| 2026-05-01 09:12 | 56.05295 | 37.92699 | 14857 ft | 289 kts | 338° |
| 2026-05-01 09:13 | 56.07114 | 37.91134 | 14573 ft | 289 kts | 338° |
| 2026-05-01 09:13 | 56.08918 | 37.89578 | 14246 ft | 287 kts | 338° |
| 2026-05-01 09:13 | 56.10713 | 37.88024 | 13925 ft | 286 kts | 338° |
| 2026-05-01 09:13 | 56.12507 | 37.86470 | 13504 ft | 286 kts | 338° |
| 2026-05-01 09:14 | 56.14300 | 37.84920 | 13087 ft | 286 kts | 337° |
| 2026-05-01 09:14 | 56.16086 | 37.83366 | 12762 ft | 283 kts | 337° |
| 2026-05-01 09:14 | 56.17851 | 37.81830 | 12553 ft | 281 kts | 337° |
| 2026-05-01 09:14 | 56.19581 | 37.80326 | 12302 ft | 280 kts | 337° |
| 2026-05-01 09:15 | 56.21330 | 37.78805 | 12051 ft | 278 kts | 337° |
| 2026-05-01 09:15 | 56.23039 | 37.77315 | 11898 ft | 268 kts | 337° |
| 2026-05-01 09:15 | 56.24687 | 37.75877 | 11769 ft | 259 kts | 337° |
| 2026-05-01 09:15 | 56.26292 | 37.74476 | 11538 ft | 255 kts | 337° |
| 2026-05-01 09:16 | 56.27851 | 37.72983 | 11328 ft | 256 kts | 326° |
| 2026-05-01 09:16 | 56.29044 | 37.70595 | 11191 ft | 261 kts | 302° |
| 2026-05-01 09:16 | 56.29603 | 37.67456 | 10888 ft | 271 kts | 277° |
| 2026-05-01 09:17 | 56.28993 | 37.60799 | 10316 ft | 269 kts | 260° |
| 2026-05-01 09:17 | 56.28599 | 37.57518 | 10072 ft | 267 kts | 260° |
| 2026-05-01 09:17 | 56.27828 | 37.51045 | 9583 ft | 262 kts | 260° |
| 2026-05-01 09:18 | 56.27447 | 37.47846 | 9241 ft | 261 kts | 260° |
| 2026-05-01 09:18 | 56.26640 | 37.41535 | 8592 ft | 258 kts | 251° |
| 2026-05-01 09:19 | 56.24167 | 37.37145 | 7898 ft | 258 kts | 199° |
| 2026-05-01 09:19 | 56.22427 | 37.36787 | 7584 ft | 256 kts | 173° |
| 2026-05-01 09:19 | 56.20773 | 37.37797 | 7298 ft | 250 kts | 147° |
| 2026-05-01 09:20 | 56.18908 | 37.42700 | 6746 ft | 239 kts | 97° |
| 2026-05-01 09:20 | 56.19113 | 37.48591 | 6218 ft | 237 kts | 81° |
| 2026-05-01 09:21 | 56.19485 | 37.54452 | 5672 ft | 236 kts | 82° |
| 2026-05-01 09:21 | 56.19419 | 37.57346 | 5406 ft | 237 kts | 101° |
| 2026-05-01 09:21 | 56.17775 | 37.62358 | 4976 ft | 237 kts | 135° |
| 2026-05-01 09:22 | 56.15475 | 37.66554 | 4590 ft | 232 kts | 134° |
| 2026-05-01 09:22 | 56.13283 | 37.70579 | 4213 ft | 219 kts | 134° |
| 2026-05-01 09:23 | 56.12227 | 37.72516 | 4032 ft | 215 kts | 134° |
| 2026-05-01 09:23 | 56.10139 | 37.76127 | 3658 ft | 206 kts | 148° |
| 2026-05-01 09:24 | 56.07441 | 37.76765 | 3354 ft | 199 kts | 199° |
| 2026-05-01 09:24 | 56.06127 | 37.76008 | 3229 ft | 198 kts | 199° |
| 2026-05-01 09:24 | 56.03561 | 37.74544 | 3008 ft | 188 kts | 200° |
| 2026-05-01 09:25 | 56.01668 | 37.71607 | 2769 ft | 182 kts | 244° |
| 2026-05-01 09:25 | 56.00959 | 37.67357 | 2572 ft | 180 kts | 256° |
| 2026-05-01 09:26 | 56.00642 | 37.65197 | 2497 ft | 179 kts | 256° |
| 2026-05-01 09:26 | 56.00024 | 37.60994 | 2470 ft | 166 kts | 256° |
| 2026-05-01 09:26 | 55.99735 | 37.59030 | 2344 ft | 161 kts | 256° |
| 2026-05-01 09:27 | 55.99191 | 37.55346 | 1934 ft | 138 kts | 257° |
| 2026-05-01 09:27 | 55.98954 | 37.53738 | 1753 ft | 131 kts | 257° |
| 2026-05-01 09:27 | 55.98724 | 37.52185 | 1559 ft | 128 kts | 257° |
| 2026-05-01 09:28 | 55.98500 | 37.50670 | 1389 ft | 128 kts | 256° |
| 2026-05-01 09:28 | 55.98273 | 37.49133 | 1218 ft | 128 kts | 256° |
| 2026-05-01 09:28 | 55.98047 | 37.47601 | 1041 ft | 127 kts | 257° |
| 2026-05-01 09:28 | 55.97821 | 37.46078 | 889 ft | 127 kts | 257° |
| 2026-05-01 09:29 | 55.97380 | 37.43070 | 641 ft | 121 kts | 256° |
| 2026-05-01 09:29 | 55.97206 | 37.41888 | 639 ft | 76 kts | 255° |
| 2026-05-01 09:30 | 55.97239 | 37.41312 | 639 ft | 19 kts | 345° |
| 2026-05-01 09:30 | 55.97369 | 37.41251 | 640 ft | 19 kts | 344° |
| 2026-05-01 09:30 | 55.97510 | 37.41192 | 639 ft | 5 kts | 6° |
| 2026-05-01 09:31 | 55.97546 | 37.41264 | 639 ft | 10 kts | 73° |
| 2026-05-01 09:31 | 55.97567 | 37.41395 | 642 ft | 12 kts | 75° |
| 2026-05-01 09:31 | 55.97628 | 37.41604 | 639 ft | 9 kts | 355° |
| 2026-05-01 09:32 | 55.97691 | 37.41577 | 639 ft | 10 kts | 347° |
| 2026-05-01 09:32 | 55.97805 | 37.41553 | 639 ft | 2 kts | 345° |
| 2026-05-01 09:32 | 55.97823 | 37.41563 | 639 ft | 3 kts | 30° |
| 2026-05-01 09:33 | 55.97835 | 37.41604 | 647 ft | 4 kts | 71° |
| 2026-05-01 09:33 | 55.97839 | 37.41634 | 639 ft | 1 kts | 75° |